sensor_id;sensor_type;location;lat;lon;timestamp;pressure;altitude;pressure_sealevel;temperature;humidity
65394;BME280;52002;49.760;6.512;2022-07-11T00:00:19;100675.51;;;20.55;53.13
65394;BME280;52002;49.760;6.512;2022-07-11T00:02:45;100677.39;;;20.54;53.29
65394;BME280;52002;49.760;6.512;2022-07-11T00:05:10;100675.84;;;20.56;53.58
65394;BME280;52002;49.760;6.512;2022-07-11T00:07:37;100673.12;;;20.56;53.78
65394;BME280;52002;49.760;6.512;2022-07-11T00:10:04;100677.89;;;20.54;54.03
65394;BME280;52002;49.760;6.512;2022-07-11T00:12:31;100673.69;;;20.51;53.92
65394;BME280;52002;49.760;6.512;2022-07-11T00:14:57;100674.06;;;20.48;54.05
65394;BME280;52002;49.760;6.512;2022-07-11T00:17:23;100669.16;;;20.47;54.00
65394;BME280;52002;49.760;6.512;2022-07-11T00:19:49;100662.58;;;20.42;53.96
65394;BME280;52002;49.760;6.512;2022-07-11T00:22:15;100664.01;;;20.38;54.02
65394;BME280;52002;49.760;6.512;2022-07-11T00:24:41;100659.77;;;20.35;54.03
65394;BME280;52002;49.760;6.512;2022-07-11T00:27:07;100658.81;;;20.32;54.14
65394;BME280;52002;49.760;6.512;2022-07-11T00:29:33;100659.52;;;20.30;54.21
65394;BME280;52002;49.760;6.512;2022-07-11T00:31:59;100659.34;;;20.27;54.27
65394;BME280;52002;49.760;6.512;2022-07-11T00:34:25;100653.66;;;20.22;54.20
65394;BME280;52002;49.760;6.512;2022-07-11T00:36:52;100653.13;;;20.23;54.25
65394;BME280;52002;49.760;6.512;2022-07-11T00:39:19;100655.51;;;20.22;54.19
65394;BME280;52002;49.760;6.512;2022-07-11T00:41:45;100653.66;;;20.22;54.24
65394;BME280;52002;49.760;6.512;2022-07-11T00:44:12;100653.13;;;20.23;54.41
65394;BME280;52002;49.760;6.512;2022-07-11T00:46:38;100654.13;;;20.26;54.50
65394;BME280;52002;49.760;6.512;2022-07-11T00:49:04;100655.48;;;20.26;54.50
65394;BME280;52002;49.760;6.512;2022-07-11T00:51:31;100647.67;;;20.27;54.54
65394;BME280;52002;49.760;6.512;2022-07-11T00:53:57;100646.65;;;20.28;54.49
65394;BME280;52002;49.760;6.512;2022-07-11T00:56:26;100645.62;;;20.29;54.65
65394;BME280;52002;49.760;6.512;2022-07-11T00:58:55;100648.37;;;20.25;54.72
65394;BME280;52002;49.760;6.512;2022-07-11T01:01:23;100646.02;;;20.22;54.72
65394;BME280;52002;49.760;6.512;2022-07-11T01:03:49;100646.22;;;20.20;54.74
65394;BME280;52002;49.760;6.512;2022-07-11T01:06:15;100638.91;;;20.21;54.76
65394;BME280;52002;49.760;6.512;2022-07-11T01:08:43;100641.63;;;20.21;55.06
65394;BME280;52002;49.760;6.512;2022-07-11T01:11:10;100635.17;;;20.22;55.26
65394;BME280;52002;49.760;6.512;2022-07-11T01:13:45;100638.75;;;20.22;55.40
65394;BME280;52002;49.760;6.512;2022-07-11T01:16:14;100633.16;;;20.20;55.32
65394;BME280;52002;49.760;6.512;2022-07-11T01:18:50;100633.92;;;20.13;55.43
65394;BME280;52002;49.760;6.512;2022-07-11T01:21:27;100624.47;;;20.09;55.46
65394;BME280;52002;49.760;6.512;2022-07-11T01:23:59;100618.38;;;20.07;55.40
65394;BME280;52002;49.760;6.512;2022-07-11T01:26:28;100618.71;;;20.08;55.71
65394;BME280;52002;49.760;6.512;2022-07-11T01:29:04;100617.00;;;20.11;55.83
65394;BME280;52002;49.760;6.512;2022-07-11T01:31:35;100614.13;;;20.09;55.74
65394;BME280;52002;49.760;6.512;2022-07-11T01:34:09;100609.42;;;20.07;55.68
65394;BME280;52002;49.760;6.512;2022-07-11T01:36:36;100611.14;;;20.04;55.70
65394;BME280;52002;49.760;6.512;2022-07-11T01:39:03;100614.02;;;20.02;55.68
65394;BME280;52002;49.760;6.512;2022-07-11T01:41:29;100612.66;;;20.02;55.84
65394;BME280;52002;49.760;6.512;2022-07-11T01:43:55;100610.98;;;20.01;56.04
65394;BME280;52002;49.760;6.512;2022-07-11T01:46:21;100610.98;;;20.01;56.38
65394;BME280;52002;49.760;6.512;2022-07-11T01:48:48;100601.16;;;20.00;56.47
65394;BME280;52002;49.760;6.512;2022-07-11T01:51:14;100607.31;;;19.98;56.35
65394;BME280;52002;49.760;6.512;2022-07-11T01:53:40;100601.59;;;19.93;56.39
65394;BME280;52002;49.760;6.512;2022-07-11T01:56:06;100605.81;;;19.91;56.43
65394;BME280;52002;49.760;6.512;2022-07-11T01:58:32;100602.48;;;19.89;56.65
65394;BME280;52002;49.760;6.512;2022-07-11T02:00:58;100606.87;;;19.86;56.96
65394;BME280;52002;49.760;6.512;2022-07-11T02:03:24;100606.04;;;19.81;57.04
65394;BME280;52002;49.760;6.512;2022-07-11T02:05:50;100600.34;;;19.76;57.12
65394;BME280;52002;49.760;6.512;2022-07-11T02:08:16;100601.05;;;19.74;57.23
65394;BME280;52002;49.760;6.512;2022-07-11T02:10:48;100603.75;;;19.74;57.51
65394;BME280;52002;49.760;6.512;2022-07-11T02:13:20;100608.17;;;19.71;57.67
65394;BME280;52002;49.760;6.512;2022-07-11T02:15:47;100606.18;;;19.65;57.78
65394;BME280;52002;49.760;6.512;2022-07-11T02:18:19;100607.75;;;19.59;57.92
65394;BME280;52002;49.760;6.512;2022-07-11T02:20:46;100603.25;;;19.51;58.18
65394;BME280;52002;49.760;6.512;2022-07-11T02:23:14;100608.05;;;19.45;58.33
65394;BME280;52002;49.760;6.512;2022-07-11T02:25:40;100610.59;;;19.43;58.47
65394;BME280;52002;49.760;6.512;2022-07-11T02:28:10;100603.33;;;19.43;58.51
65394;BME280;52002;49.760;6.512;2022-07-11T02:30:37;100610.78;;;19.41;58.54
65394;BME280;52002;49.760;6.512;2022-07-11T02:33:05;100606.41;;;19.36;58.50
65394;BME280;52002;49.760;6.512;2022-07-11T02:35:34;100609.13;;;19.32;58.56
65394;BME280;52002;49.760;6.512;2022-07-11T02:38:01;100607.16;;;19.25;58.60
65394;BME280;52002;49.760;6.512;2022-07-11T02:40:27;100605.83;;;19.21;58.65
65394;BME280;52002;49.760;6.512;2022-07-11T02:42:53;100606.87;;;19.16;58.68
65394;BME280;52002;49.760;6.512;2022-07-11T02:45:21;100614.31;;;19.14;58.68
65394;BME280;52002;49.760;6.512;2022-07-11T02:47:47;100613.02;;;19.10;58.66
65394;BME280;52002;49.760;6.512;2022-07-11T02:50:13;100616.42;;;19.04;58.71
65394;BME280;52002;49.760;6.512;2022-07-11T02:52:40;100612.23;;;18.97;58.89
65394;BME280;52002;49.760;6.512;2022-07-11T02:55:09;100612.73;;;18.92;59.02
65394;BME280;52002;49.760;6.512;2022-07-11T02:57:37;100613.08;;;18.89;59.19
65394;BME280;52002;49.760;6.512;2022-07-11T03:00:05;100614.10;;;18.88;59.27
65394;BME280;52002;49.760;6.512;2022-07-11T03:02:33;100611.41;;;18.84;59.29
65394;BME280;52002;49.760;6.512;2022-07-11T03:04:59;100610.05;;;18.84;59.31
65394;BME280;52002;49.760;6.512;2022-07-11T03:07:26;100608.08;;;18.78;59.34
65394;BME280;52002;49.760;6.512;2022-07-11T03:09:53;100612.48;;;18.71;59.42
65394;BME280;52002;49.760;6.512;2022-07-11T03:12:20;100615.58;;;18.59;59.50
65394;BME280;52002;49.760;6.512;2022-07-11T03:14:46;100616.80;;;18.48;59.66
65394;BME280;52002;49.760;6.512;2022-07-11T03:17:12;100612.60;;;18.38;59.81
65394;BME280;52002;49.760;6.512;2022-07-11T03:19:38;100612.27;;;18.32;59.87
65394;BME280;52002;49.760;6.512;2022-07-11T03:22:04;100607.20;;;18.29;59.87
65394;BME280;52002;49.760;6.512;2022-07-11T03:24:30;100609.94;;;18.25;59.86
65394;BME280;52002;49.760;6.512;2022-07-11T03:26:56;100606.37;;;18.20;59.92
65394;BME280;52002;49.760;6.512;2022-07-11T03:29:22;100613.66;;;18.12;59.97
65394;BME280;52002;49.760;6.512;2022-07-11T03:31:48;100608.95;;;18.05;60.11
65394;BME280;52002;49.760;6.512;2022-07-11T03:34:14;100615.03;;;17.99;60.18
65394;BME280;52002;49.760;6.512;2022-07-11T03:36:39;100614.02;;;17.92;60.28
65394;BME280;52002;49.760;6.512;2022-07-11T03:39:05;100611.64;;;17.89;60.42
65394;BME280;52002;49.760;6.512;2022-07-11T03:41:31;100614.68;;;17.86;60.46
65394;BME280;52002;49.760;6.512;2022-07-11T03:43:57;100612.64;;;17.80;60.54
65394;BME280;52002;49.760;6.512;2022-07-11T03:46:23;100616.53;;;17.73;60.67
65394;BME280;52002;49.760;6.512;2022-07-11T03:48:49;100616.03;;;17.69;60.82
65394;BME280;52002;49.760;6.512;2022-07-11T03:51:16;100614.34;;;17.68;60.97
65394;BME280;52002;49.760;6.512;2022-07-11T03:53:42;100612.98;;;17.64;60.93
65394;BME280;52002;49.760;6.512;2022-07-11T03:56:09;100617.20;;;17.58;61.08
65394;BME280;52002;49.760;6.512;2022-07-11T03:58:35;100614.34;;;17.56;61.18
65394;BME280;52002;49.760;6.512;2022-07-11T04:01:00;100615.70;;;17.56;61.26
65394;BME280;52002;49.760;6.512;2022-07-11T04:03:27;100612.66;;;17.55;61.38
65394;BME280;52002;49.760;6.512;2022-07-11T04:05:52;100609.95;;;17.55;61.38
65394;BME280;52002;49.760;6.512;2022-07-11T04:08:18;100615.17;;;17.56;61.33
65394;BME280;52002;49.760;6.512;2022-07-11T04:10:44;100609.44;;;17.55;61.31
65394;BME280;52002;49.760;6.512;2022-07-11T04:13:10;100612.33;;;17.58;61.41
65394;BME280;52002;49.760;6.512;2022-07-11T04:15:36;100614.34;;;17.56;61.35
65394;BME280;52002;49.760;6.512;2022-07-11T04:18:02;100621.77;;;17.54;61.49
65394;BME280;52002;49.760;6.512;2022-07-11T04:20:28;100616.36;;;17.50;61.45
65394;BME280;52002;49.760;6.512;2022-07-11T04:22:54;100616.87;;;17.49;61.59
65394;BME280;52002;49.760;6.512;2022-07-11T04:25:20;100617.35;;;17.44;61.59
65394;BME280;52002;49.760;6.512;2022-07-11T04:27:46;100621.77;;;17.41;61.80
65394;BME280;52002;49.760;6.512;2022-07-11T04:30:12;100622.07;;;17.42;61.88
65394;BME280;52002;49.760;6.512;2022-07-11T04:32:38;100624.61;;;17.40;61.83
65394;BME280;52002;49.760;6.512;2022-07-11T04:35:04;100625.47;;;17.40;61.96
65394;BME280;52002;49.760;6.512;2022-07-11T04:37:30;100627.48;;;17.38;62.19
65394;BME280;52002;49.760;6.512;2022-07-11T04:39:56;100630.85;;;17.36;62.44
65394;BME280;52002;49.760;6.512;2022-07-11T04:42:22;100630.85;;;17.36;62.58
65394;BME280;52002;49.760;6.512;2022-07-11T04:44:48;100632.36;;;17.39;62.65
65394;BME280;52002;49.760;6.512;2022-07-11T04:47:14;100630.52;;;17.39;62.68
65394;BME280;52002;49.760;6.512;2022-07-11T04:49:39;100626.80;;;17.44;62.72
65394;BME280;52002;49.760;6.512;2022-07-11T04:52:05;100633.08;;;17.49;62.65
65394;BME280;52002;49.760;6.512;2022-07-11T04:54:33;100634.24;;;17.51;62.67
65394;BME280;52002;49.760;6.512;2022-07-11T04:56:59;100645.38;;;17.52;62.65
65394;BME280;52002;49.760;6.512;2022-07-11T04:59:25;100643.70;;;17.55;62.60
65394;BME280;52002;49.760;6.512;2022-07-11T05:01:52;100646.74;;;17.56;62.62
65394;BME280;52002;49.760;6.512;2022-07-11T05:04:17;100648.44;;;17.57;62.62
65394;BME280;52002;49.760;6.512;2022-07-11T05:06:43;100647.77;;;17.59;62.58
65394;BME280;52002;49.760;6.512;2022-07-11T05:09:09;100649.42;;;17.60;62.55
65394;BME280;52002;49.760;6.512;2022-07-11T05:11:36;100648.75;;;17.62;62.58
65394;BME280;52002;49.760;6.512;2022-07-11T05:14:02;100660.91;;;17.62;62.61
65394;BME280;52002;49.760;6.512;2022-07-11T05:16:28;100653.47;;;17.60;62.60
65394;BME280;52002;49.760;6.512;2022-07-11T05:18:54;100661.75;;;17.58;62.68
65394;BME280;52002;49.760;6.512;2022-07-11T05:21:20;100659.91;;;17.59;62.68
65394;BME280;52002;49.760;6.512;2022-07-11T05:23:48;100659.57;;;17.58;62.77
65394;BME280;52002;49.760;6.512;2022-07-11T05:26:16;100665.97;;;17.65;62.81
65394;BME280;52002;49.760;6.512;2022-07-11T05:28:42;100657.87;;;17.65;62.84
65394;BME280;52002;49.760;6.512;2022-07-11T05:31:08;100664.65;;;17.73;62.80
65394;BME280;52002;49.760;6.512;2022-07-11T05:33:34;100665.66;;;17.85;62.66
65394;BME280;52002;49.760;6.512;2022-07-11T05:36:01;100675.46;;;17.90;62.67
65394;BME280;52002;49.760;6.512;2022-07-11T05:38:27;100674.95;;;17.95;62.71
65394;BME280;52002;49.760;6.512;2022-07-11T05:40:53;100669.06;;;17.99;62.59
65394;BME280;52002;49.760;6.512;2022-07-11T05:43:19;100673.45;;;18.00;62.55
65394;BME280;52002;49.760;6.512;2022-07-11T05:45:45;100676.16;;;18.00;62.58
65394;BME280;52002;49.760;6.512;2022-07-11T05:48:10;100668.05;;;18.00;62.63
65394;BME280;52002;49.760;6.512;2022-07-11T05:50:36;100662.98;;;18.01;62.64
65394;BME280;52002;49.760;6.512;2022-07-11T05:53:02;100665.69;;;18.05;62.71
65394;BME280;52002;49.760;6.512;2022-07-11T05:55:29;100663.98;;;18.17;62.73
65394;BME280;52002;49.760;6.512;2022-07-11T05:57:55;100664.33;;;18.26;62.60
65394;BME280;52002;49.760;6.512;2022-07-11T06:00:21;100667.34;;;18.35;62.63
65394;BME280;52002;49.760;6.512;2022-07-11T06:02:48;100662.76;;;18.48;62.66
65394;BME280;52002;49.760;6.512;2022-07-11T06:05:14;100665.91;;;18.64;62.61
65394;BME280;52002;49.760;6.512;2022-07-11T06:07:40;100672.47;;;18.78;62.49
65394;BME280;52002;49.760;6.512;2022-07-11T06:10:24;100660.59;;;18.96;62.40
65394;BME280;52002;49.760;6.512;2022-07-11T06:12:51;100656.98;;;19.12;62.17
65394;BME280;52002;49.760;6.512;2022-07-11T06:15:17;100657.51;;;19.35;61.75
65394;BME280;52002;49.760;6.512;2022-07-11T06:17:42;100655.70;;;19.54;61.17
65394;BME280;52002;49.760;6.512;2022-07-11T06:20:11;100658.42;;;19.74;60.87
65394;BME280;52002;49.760;6.512;2022-07-11T06:22:37;100657.14;;;19.93;60.41
65394;BME280;52002;49.760;6.512;2022-07-11T06:25:03;100653.98;;;20.04;59.85
65394;BME280;52002;49.760;6.512;2022-07-11T06:27:30;100660.30;;;20.15;59.41
65394;BME280;52002;49.760;6.512;2022-07-11T06:29:55;100664.60;;;20.29;59.18
65394;BME280;52002;49.760;6.512;2022-07-11T06:32:21;100661.72;;;20.45;58.91
65394;BME280;52002;49.760;6.512;2022-07-11T06:34:49;100661.20;;;20.61;58.62
65394;BME280;52002;49.760;6.512;2022-07-11T06:37:15;100669.20;;;20.73;58.39
65394;BME280;52002;49.760;6.512;2022-07-11T06:39:41;100661.92;;;20.89;57.94
65394;BME280;52002;49.760;6.512;2022-07-11T06:42:07;100657.64;;;21.05;57.55
65394;BME280;52002;49.760;6.512;2022-07-11T06:44:33;100659.80;;;21.21;57.10
65394;BME280;52002;49.760;6.512;2022-07-11T06:46:59;100658.11;;;21.46;56.48
65394;BME280;52002;49.760;6.512;2022-07-11T06:49:24;100661.31;;;21.60;55.83
65394;BME280;52002;49.760;6.512;2022-07-11T06:51:50;100659.36;;;21.76;55.46
65394;BME280;52002;49.760;6.512;2022-07-11T06:54:16;100664.53;;;21.92;55.00
65394;BME280;52002;49.760;6.512;2022-07-11T06:56:42;100661.73;;;22.07;54.63
65394;BME280;52002;49.760;6.512;2022-07-11T06:59:08;100663.08;;;22.18;54.14
65394;BME280;52002;49.760;6.512;2022-07-11T07:01:34;100658.84;;;22.26;53.97
65394;BME280;52002;49.760;6.512;2022-07-11T07:03:59;100652.42;;;22.23;53.70
65394;BME280;52002;49.760;6.512;2022-07-11T07:06:25;100654.98;;;22.14;53.47
65394;BME280;52002;49.760;6.512;2022-07-11T07:08:51;100654.34;;;22.12;53.54
65394;BME280;52002;49.760;6.512;2022-07-11T07:11:17;100658.80;;;22.20;53.23
65394;BME280;52002;49.760;6.512;2022-07-11T07:13:44;100653.93;;;22.26;53.08
65394;BME280;52002;49.760;6.512;2022-07-11T07:16:15;100655.56;;;22.38;52.89
65394;BME280;52002;49.760;6.512;2022-07-11T07:18:41;100654.88;;;22.57;52.71
65394;BME280;52002;49.760;6.512;2022-07-11T07:21:09;100664.50;;;22.71;52.61
65394;BME280;52002;49.760;6.512;2022-07-11T07:23:34;100658.48;;;22.82;52.22
65394;BME280;52002;49.760;6.512;2022-07-11T07:26:00;100664.14;;;23.05;51.79
65394;BME280;52002;49.760;6.512;2022-07-11T07:28:26;100659.30;;;23.25;50.87
65394;BME280;52002;49.760;6.512;2022-07-11T07:30:54;100646.16;;;23.48;50.48
65394;BME280;52002;49.760;6.512;2022-07-11T07:33:20;100649.95;;;23.68;49.75
65394;BME280;52002;49.760;6.512;2022-07-11T07:35:45;100649.04;;;23.71;49.50
65394;BME280;52002;49.760;6.512;2022-07-11T07:38:11;100651.76;;;23.64;49.36
65394;BME280;52002;49.760;6.512;2022-07-11T07:40:38;100654.11;;;23.43;49.12
65394;BME280;52002;49.760;6.512;2022-07-11T07:43:04;100655.13;;;23.29;49.24
65394;BME280;52002;49.760;6.512;2022-07-11T07:45:32;100654.66;;;23.18;49.52
65394;BME280;52002;49.760;6.512;2022-07-11T07:47:58;100655.96;;;23.23;49.31
65394;BME280;52002;49.760;6.512;2022-07-11T07:50:24;100645.41;;;23.30;48.95
65394;BME280;52002;49.760;6.512;2022-07-11T07:52:50;100643.33;;;23.39;48.91
65394;BME280;52002;49.760;6.512;2022-07-11T07:55:16;100646.98;;;23.49;48.71
65394;BME280;52002;49.760;6.512;2022-07-11T07:57:43;100656.13;;;23.65;48.34
65394;BME280;52002;49.760;6.512;2022-07-11T08:00:09;100650.67;;;23.59;48.23
65394;BME280;52002;49.760;6.512;2022-07-11T08:02:54;100658.77;;;23.76;48.43
65394;BME280;52002;49.760;6.512;2022-07-11T08:05:20;100655.69;;;24.06;47.91
65394;BME280;52002;49.760;6.512;2022-07-11T08:07:46;100648.95;;;24.22;47.67
65394;BME280;52002;49.760;6.512;2022-07-11T08:10:12;100647.88;;;24.30;47.47
65394;BME280;52002;49.760;6.512;2022-07-11T08:12:40;100644.48;;;24.55;47.13
65394;BME280;52002;49.760;6.512;2022-07-11T08:15:07;100649.59;;;24.67;46.65
65394;BME280;52002;49.760;6.512;2022-07-11T08:17:33;100661.88;;;24.67;46.68
65394;BME280;52002;49.760;6.512;2022-07-11T08:19:59;100657.39;;;24.70;46.44
65394;BME280;52002;49.760;6.512;2022-07-11T08:22:26;100657.05;;;24.76;46.43
65394;BME280;52002;49.760;6.512;2022-07-11T08:24:52;100656.48;;;24.90;46.24
65394;BME280;52002;49.760;6.512;2022-07-11T08:27:18;100659.94;;;25.18;45.78
65394;BME280;52002;49.760;6.512;2022-07-11T08:29:43;100653.21;;;25.43;45.05
65394;BME280;52002;49.760;6.512;2022-07-11T08:32:09;100659.36;;;25.64;44.07
65394;BME280;52002;49.760;6.512;2022-07-11T08:34:36;100659.36;;;25.64;44.07
65394;BME280;52002;49.760;6.512;2022-07-11T08:37:03;100658.05;;;25.73;44.20
65394;BME280;52002;49.760;6.512;2022-07-11T08:39:29;100658.38;;;25.83;44.04
65394;BME280;52002;49.760;6.512;2022-07-11T08:41:54;100653.40;;;25.89;43.92
65394;BME280;52002;49.760;6.512;2022-07-11T08:44:24;100649.31;;;25.99;43.60
65394;BME280;52002;49.760;6.512;2022-07-11T08:46:50;100651.34;;;26.10;43.33
65394;BME280;52002;49.760;6.512;2022-07-11T08:49:19;100655.92;;;26.16;43.24
65394;BME280;52002;49.760;6.512;2022-07-11T08:51:47;100657.33;;;26.26;42.97
65394;BME280;52002;49.760;6.512;2022-07-11T08:54:13;100656.27;;;26.27;42.65
65394;BME280;52002;49.760;6.512;2022-07-11T08:56:40;100653.77;;;26.34;42.68
65394;BME280;52002;49.760;6.512;2022-07-11T08:59:10;100650.82;;;26.45;42.70
65394;BME280;52002;49.760;6.512;2022-07-11T09:01:40;100649.14;;;26.54;42.32
65394;BME280;52002;49.760;6.512;2022-07-11T09:04:09;100647.39;;;26.50;42.19
65394;BME280;52002;49.760;6.512;2022-07-11T09:06:35;100653.70;;;26.41;42.06
65394;BME280;52002;49.760;6.512;2022-07-11T09:09:02;100650.18;;;26.25;42.20
65394;BME280;52002;49.760;6.512;2022-07-11T09:11:29;100650.04;;;26.29;42.22
65394;BME280;52002;49.760;6.512;2022-07-11T09:13:58;100650.63;;;26.31;42.11
65394;BME280;52002;49.760;6.512;2022-07-11T09:16:24;100656.72;;;26.33;41.88
65394;BME280;52002;49.760;6.512;2022-07-11T09:18:52;100659.17;;;26.41;41.84
65394;BME280;52002;49.760;6.512;2022-07-11T09:21:18;100653.02;;;26.46;41.77
65394;BME280;52002;49.760;6.512;2022-07-11T09:24:04;100655.91;;;26.51;41.60
65394;BME280;52002;49.760;6.512;2022-07-11T09:26:51;100646.40;;;26.54;41.64
65394;BME280;52002;49.760;6.512;2022-07-11T09:29:19;100644.56;;;26.66;41.65
65394;BME280;52002;49.760;6.512;2022-07-11T09:31:47;100650.97;;;26.69;41.38
65394;BME280;52002;49.760;6.512;2022-07-11T09:34:16;100648.88;;;26.80;41.32
65394;BME280;52002;49.760;6.512;2022-07-11T09:36:52;100650.08;;;26.85;41.19
65394;BME280;52002;49.760;6.512;2022-07-11T09:39:22;100636.53;;;26.90;41.03
65394;BME280;52002;49.760;6.512;2022-07-11T09:41:52;100648.08;;;26.73;40.87
65394;BME280;52002;49.760;6.512;2022-07-11T09:44:21;100648.22;;;26.69;41.18
65394;BME280;52002;49.760;6.512;2022-07-11T09:46:57;100652.04;;;26.77;41.15
65394;BME280;52002;49.760;6.512;2022-07-11T09:54:59;100638.54;;;27.22;40.29
65394;BME280;52002;49.760;6.512;2022-07-11T09:57:33;100638.30;;;27.24;40.17
65394;BME280;52002;49.760;6.512;2022-07-11T10:00:03;100643.11;;;27.19;40.07
65394;BME280;52002;49.760;6.512;2022-07-11T10:02:34;100648.55;;;26.89;40.34
65394;BME280;52002;49.760;6.512;2022-07-11T10:05:01;100643.05;;;26.70;40.79
65394;BME280;52002;49.760;6.512;2022-07-11T10:07:28;100638.33;;;26.68;41.05
65394;BME280;52002;49.760;6.512;2022-07-11T10:09:56;100636.06;;;26.74;41.00
65394;BME280;52002;49.760;6.512;2022-07-11T10:12:24;100631.05;;;26.90;40.74
65394;BME280;52002;49.760;6.512;2022-07-11T10:14:52;100630.42;;;27.06;40.62
65394;BME280;52002;49.760;6.512;2022-07-11T10:17:22;100633.19;;;26.97;40.19
65394;BME280;52002;49.760;6.512;2022-07-11T10:20:16;100631.18;;;26.67;40.45
65394;BME280;52002;49.760;6.512;2022-07-11T10:22:53;100628.83;;;26.43;40.60
65394;BME280;52002;49.760;6.512;2022-07-11T10:30:57;100651.43;;;26.75;41.00
65394;BME280;52002;49.760;6.512;2022-07-11T10:33:26;100650.97;;;27.06;40.40
65394;BME280;52002;49.760;6.512;2022-07-11T10:35:53;100643.20;;;27.13;40.20
65394;BME280;52002;49.760;6.512;2022-07-11T10:38:20;100649.50;;;27.22;40.09
65394;BME280;52002;49.760;6.512;2022-07-11T10:40:52;100646.82;;;27.25;39.70
65394;BME280;52002;49.760;6.512;2022-07-11T10:46:06;100634.80;;;27.68;39.33
65394;BME280;52002;49.760;6.512;2022-07-11T10:48:55;100633.70;;;28.12;39.06
65394;BME280;52002;49.760;6.512;2022-07-11T10:51:42;100640.84;;;28.37;38.47
65394;BME280;52002;49.760;6.512;2022-07-11T10:57:11;100638.38;;;28.61;37.76
65394;BME280;52002;49.760;6.512;2022-07-11T11:02:27;100641.89;;;28.83;37.37
65394;BME280;52002;49.760;6.512;2022-07-11T11:04:55;100640.30;;;28.87;37.04
65394;BME280;52002;49.760;6.512;2022-07-11T11:15:49;100630.52;;;29.49;36.13
65394;BME280;52002;49.760;6.512;2022-07-11T11:23:41;100620.88;;;29.98;35.14
65394;BME280;52002;49.760;6.512;2022-07-11T11:26:16;100614.91;;;29.87;35.01
65394;BME280;52002;49.760;6.512;2022-07-11T11:28:57;100608.66;;;29.94;34.91
65394;BME280;52002;49.760;6.512;2022-07-11T11:31:29;100606.18;;;29.92;34.70
65394;BME280;52002;49.760;6.512;2022-07-11T11:34:00;100607.55;;;29.75;34.52
65394;BME280;52002;49.760;6.512;2022-07-11T11:36:28;100603.66;;;29.71;34.94
65394;BME280;52002;49.760;6.512;2022-07-11T11:38:55;100614.48;;;29.78;34.85
65394;BME280;52002;49.760;6.512;2022-07-11T11:41:27;100610.54;;;29.91;35.02
65394;BME280;52002;49.760;6.512;2022-07-11T11:43:55;100603.66;;;29.91;34.83
65394;BME280;52002;49.760;6.512;2022-07-11T11:48:57;100606.55;;;29.47;34.84
65394;BME280;52002;49.760;6.512;2022-07-11T11:51:26;100607.94;;;29.18;35.22
65394;BME280;52002;49.760;6.512;2022-07-11T11:53:54;100599.39;;;29.17;35.53
65394;BME280;52002;49.760;6.512;2022-07-11T11:56:26;100595.09;;;29.36;35.37
65394;BME280;52002;49.760;6.512;2022-07-11T11:58:58;100589.91;;;29.57;34.94
65394;BME280;52002;49.760;6.512;2022-07-11T12:01:27;100596.69;;;29.66;34.89
65394;BME280;52002;49.760;6.512;2022-07-11T12:03:56;100594.77;;;29.83;34.62
65394;BME280;52002;49.760;6.512;2022-07-11T12:06:27;100589.66;;;30.09;34.45
65394;BME280;52002;49.760;6.512;2022-07-11T12:09:06;100602.13;;;30.34;33.91
65394;BME280;52002;49.760;6.512;2022-07-11T12:11:36;100602.25;;;30.44;33.70
65394;BME280;52002;49.760;6.512;2022-07-11T12:14:05;100600.17;;;30.32;33.68
65394;BME280;52002;49.760;6.512;2022-07-11T12:16:44;100601.70;;;30.23;33.77
65394;BME280;52002;49.760;6.512;2022-07-11T12:19:17;100600.38;;;30.28;33.81
65394;BME280;52002;49.760;6.512;2022-07-11T12:21:49;100604.01;;;30.31;33.84
65394;BME280;52002;49.760;6.512;2022-07-11T12:24:17;100595.08;;;30.43;33.90
65394;BME280;52002;49.760;6.512;2022-07-11T12:26:46;100599.80;;;30.65;33.55
65394;BME280;52002;49.760;6.512;2022-07-11T12:29:19;100602.66;;;30.76;33.29
65394;BME280;52002;49.760;6.512;2022-07-11T12:31:56;100595.88;;;30.61;33.48
65394;BME280;52002;49.760;6.512;2022-07-11T12:34:26;100601.24;;;30.51;33.72
65394;BME280;52002;49.760;6.512;2022-07-11T12:39:40;100591.45;;;30.40;33.78
65394;BME280;52002;49.760;6.512;2022-07-11T12:45:02;100579.02;;;31.04;33.23
65394;BME280;52002;49.760;6.512;2022-07-11T12:47:45;100579.00;;;31.29;33.31
65394;BME280;52002;49.760;6.512;2022-07-11T12:50:18;100582.61;;;31.32;32.77
65394;BME280;52002;49.760;6.512;2022-07-11T12:52:54;100578.48;;;31.35;32.44
65394;BME280;52002;49.760;6.512;2022-07-11T12:55:30;100575.63;;;31.55;32.45
65394;BME280;52002;49.760;6.512;2022-07-11T13:01:00;100568.72;;;31.52;31.95
65394;BME280;52002;49.760;6.512;2022-07-11T13:03:33;100570.61;;;31.46;32.21
65394;BME280;52002;49.760;6.512;2022-07-11T13:06:01;100561.94;;;31.68;31.96
65394;BME280;52002;49.760;6.512;2022-07-11T13:08:33;100563.49;;;31.88;31.89
65394;BME280;52002;49.760;6.512;2022-07-11T13:11:18;100569.88;;;31.94;31.44
65394;BME280;52002;49.760;6.512;2022-07-11T13:13:47;100567.30;;;31.77;31.45
65394;BME280;52002;49.760;6.512;2022-07-11T13:16:18;100570.34;;;31.81;31.43
65394;BME280;52002;49.760;6.512;2022-07-11T13:18:44;100563.83;;;31.97;31.22
65394;BME280;52002;49.760;6.512;2022-07-11T13:21:11;100565.61;;;32.21;31.09
65394;BME280;52002;49.760;6.512;2022-07-11T13:23:38;100567.38;;;32.41;30.75
65394;BME280;52002;49.760;6.512;2022-07-11T13:26:06;100567.38;;;32.38;30.49
65394;BME280;52002;49.760;6.512;2022-07-11T13:28:33;100573.47;;;32.40;30.36
65394;BME280;52002;49.760;6.512;2022-07-11T13:30:59;100572.87;;;32.28;30.47
65394;BME280;52002;49.760;6.512;2022-07-11T13:33:25;100571.67;;;32.18;30.68
65394;BME280;52002;49.760;6.512;2022-07-11T13:35:51;100574.87;;;31.97;30.53
65394;BME280;52002;49.760;6.512;2022-07-11T13:38:18;100570.30;;;31.78;30.74